Time;durP1;ratioP1;P1;durP2;ratioP2;P2;SDS_P1;SDS_P2;PMS_P1;PMS_P2;Temp;Humidity;BMP_temperature;BMP_pressure;BME280_temperature;BME280_humidity;BME280_pressure;Samples;Min_cycle;Max_cycle;Signal;HPM_P1;HPM_P2
2022/07/23 00:01:54;;;;;;;1999.90;999.90;;;;;;;20.41;100.00;99765.66;5068838;28;20067;-52
2022/07/23 00:04:39;;;;;;;1999.90;999.90;;;;;;;20.43;100.00;99758.44;5055350;28;20056;-52
2022/07/23 00:07:23;;;;;;;1999.90;999.90;;;;;;;20.45;100.00;99760.06;5055449;28;20099;-53
2022/07/23 00:10:09;;;;;;;1999.90;999.90;;;;;;;20.42;100.00;99759.41;5063033;28;20541;-52
2022/07/23 00:12:53;;;;;;;1999.90;999.90;;;;;;;20.29;100.00;99756.69;5052004;28;20149;-52
2022/07/23 00:15:38;;;;;;;1999.90;999.90;;;;;;;20.17;100.00;99750.38;5052488;28;20159;-52
2022/07/23 00:18:22;;;;;;;1999.90;999.90;;;;;;;20.19;100.00;99759.13;5051354;28;20059;-52
2022/07/23 00:21:07;;;;;;;1999.90;999.90;;;;;;;20.19;100.00;99753.78;5054079;28;20604;-52
2022/07/23 00:23:51;;;;;;;1999.90;999.90;;;;;;;19.98;100.00;99749.88;5066776;28;20083;-52
2022/07/23 00:26:36;;;;;;;1999.90;999.90;;;;;;;19.93;100.00;99749.34;5052686;28;20076;-52
2022/07/23 00:29:20;;;;;;;1999.90;999.90;;;;;;;19.84;100.00;99750.75;5053364;28;20063;-52
2022/07/23 00:32:05;;;;;;;1999.90;999.90;;;;;;;19.69;100.00;99747.28;5047152;28;20044;-52
2022/07/23 00:34:49;;;;;;;1999.90;999.90;;;;;;;19.59;100.00;99741.66;5050889;28;20063;-53
2022/07/23 00:37:34;;;;;;;1999.90;999.90;;;;;;;19.63;100.00;99747.66;5064336;28;20048;-52
2022/07/23 00:40:18;;;;;;;1999.90;999.90;;;;;;;19.59;100.00;99746.97;5051645;28;20043;-52
2022/07/23 00:43:04;;;;;;;1999.90;999.90;;;;;;;19.60;100.00;99750.50;5064307;28;20462;-53
2022/07/23 00:45:48;;;;;;;1999.90;999.90;;;;;;;19.49;100.00;99747.66;5060743;28;20910;-52
2022/07/23 00:48:32;;;;;;;1999.90;999.90;;;;;;;19.45;100.00;99751.47;5060214;28;20075;-52
2022/07/23 00:51:17;;;;;;;1999.90;999.90;;;;;;;19.22;100.00;99747.59;5053585;28;20557;-52
2022/07/23 00:54:02;;;;;;;1999.90;999.90;;;;;;;19.21;100.00;99757.34;5062848;28;20376;-53
2022/07/23 00:56:47;;;;;;;1999.90;999.90;;;;;;;19.23;100.00;99749.28;5060561;28;20415;-51
2022/07/23 00:59:31;;;;;;;1999.90;999.90;;;;;;;19.19;100.00;99751.28;5069886;28;20056;-52
2022/07/23 01:02:16;;;;;;;1999.90;999.90;;;;;;;19.18;100.00;99743.41;5061513;28;20040;-52
2022/07/23 01:05:00;;;;;;;1999.90;999.90;;;;;;;18.95;100.00;99736.84;5064112;28;20834;-52
2022/07/23 01:07:45;;;;;;;1999.90;999.90;;;;;;;18.86;100.00;99740.91;5059156;28;20048;-52
2022/07/23 01:10:33;;;;;;;1999.90;999.90;;;;;;;18.84;100.00;99727.72;5066940;28;20043;-52
2022/07/23 01:13:17;;;;;;;1999.90;999.90;;;;;;;18.88;100.00;99734.56;5057110;28;20066;-52
2022/07/23 01:16:01;;;;;;;1999.90;999.90;;;;;;;18.85;100.00;99740.06;5066667;28;20044;-51
2022/07/23 01:18:46;;;;;;;1999.90;999.90;;;;;;;18.87;100.00;99738.16;5058762;28;20039;-51
2022/07/23 01:21:31;;;;;;;1999.90;999.90;;;;;;;18.79;100.00;99729.81;5056074;28;20095;-52
2022/07/23 01:24:15;;;;;;;1999.90;999.90;;;;;;;18.83;100.00;99730.47;5064603;28;20083;-53
2022/07/23 01:27:09;;;;;;;1999.90;999.90;;;;;;;18.81;100.00;99729.72;5065947;28;20059;-52
2022/07/23 01:29:57;;;;;;;1999.90;999.90;;;;;;;18.89;100.00;99725.66;5059716;28;20072;-52
2022/07/23 01:32:41;;;;;;;1999.90;999.90;;;;;;;18.86;100.00;99728.50;5058067;28;20072;-51
2022/07/23 01:35:25;;;;;;;1999.90;999.90;;;;;;;18.98;100.00;99734.88;5058762;28;20041;-52
2022/07/23 01:38:14;;;;;;;1999.90;999.90;;;;;;;18.99;100.00;99735.72;5058901;28;20044;-52
2022/07/23 01:40:58;;;;;;;1999.90;999.90;;;;;;;19.01;100.00;99736.47;5060582;28;20383;-52
2022/07/23 01:43:49;;;;;;;1999.90;999.90;;;;;;;18.89;100.00;99732.78;5059285;28;21526;-52
2022/07/23 01:46:33;;;;;;;1999.90;999.90;;;;;;;18.97;100.00;99735.81;5060427;28;20453;-52
2022/07/23 01:49:19;;;;;;;1999.90;999.90;;;;;;;18.99;100.00;99735.72;5058423;28;20045;-52
2022/07/23 01:52:23;;;;;;;1999.90;999.90;;;;;;;18.88;100.00;99731.03;5063836;28;20084;-51
2022/07/23 01:55:08;;;;;;;1999.90;999.90;;;;;;;18.98;100.00;99723.38;5064904;28;20061;-52
2022/07/23 01:57:58;;;;;;;1999.90;999.90;;;;;;;18.89;100.00;99717.69;5050859;28;20037;-51
2022/07/23 02:00:47;;;;;;;1999.90;999.90;;;;;;;18.90;100.00;99714.09;5050082;28;20091;-51
2022/07/23 02:03:31;;;;;;;1999.90;999.90;;;;;;;19.01;100.00;99725.84;5063680;28;20070;-53
2022/07/23 02:06:15;;;;;;;1999.90;999.90;;;;;;;18.99;100.00;99718.00;5060884;28;20045;-52
2022/07/23 02:09:00;;;;;;;1999.90;999.90;;;;;;;18.92;100.00;99724.63;5050145;28;20037;-52
2022/07/23 02:11:45;;;;;;;1999.90;999.90;;;;;;;18.86;100.00;99723.19;5059284;28;20049;-52
2022/07/23 02:14:29;;;;;;;1999.90;999.90;;;;;;;18.88;100.00;99723.97;5064279;28;20063;-51
2022/07/23 02:17:14;;;;;;;1999.90;999.90;;;;;;;18.89;100.00;99715.03;5061480;28;20049;-53
2022/07/23 02:19:58;;;;;;;1999.90;999.90;;;;;;;18.78;100.00;99716.63;5055355;28;20642;-52
2022/07/23 02:22:43;;;;;;;1999.90;999.90;;;;;;;18.87;100.00;99714.28;5063078;28;20059;-52
2022/07/23 02:25:27;;;;;;;1999.90;999.90;;;;;;;18.95;100.00;99708.53;5061384;28;20102;-52
2022/07/23 02:28:17;;;;;;;1999.90;999.90;;;;;;;18.89;100.00;99693.81;5055650;28;20048;-52
2022/07/23 02:31:03;;;;;;;1999.90;999.90;;;;;;;19.01;100.00;99713.47;5049276;28;20049;-52
2022/07/23 02:33:47;;;;;;;1999.90;999.90;;;;;;;18.86;100.00;99715.22;5051496;28;20098;-52
2022/07/23 02:36:33;;;;;;;1999.90;999.90;;;;;;;18.81;100.00;99711.13;5062840;28;20550;-51
2022/07/23 02:39:18;;;;;;;1999.90;999.90;;;;;;;18.93;100.00;99707.75;5058342;28;20641;-51
2022/07/23 02:42:02;;;;;;;1999.90;999.90;;;;;;;18.91;100.00;99714.94;5056315;28;20051;-52
2022/07/23 02:44:50;;;;;;;1999.90;999.90;;;;;;;18.95;100.00;99715.59;5054132;28;20041;-52
2022/07/23 02:47:35;;;;;;;1999.90;999.90;;;;;;;18.82;100.00;99715.53;5060093;28;20063;-53
2022/07/23 02:50:20;;;;;;;1999.90;999.90;;;;;;;18.89;100.00;99724.81;5064709;28;20066;-52
2022/07/23 02:53:05;;;;;;;1999.90;999.90;;;;;;;18.91;100.00;99723.78;5060834;28;20479;-52
2022/07/23 02:55:51;;;;;;;1999.90;999.90;;;;;;;18.88;100.00;99723.97;5056330;28;20063;-52
2022/07/23 02:58:35;;;;;;;1999.90;999.90;;;;;;;18.95;100.00;99719.13;5059431;28;20036;-52
2022/07/23 03:01:20;;;;;;;1999.90;999.90;;;;;;;19.01;100.00;99721.41;5061392;28;20056;-52
2022/07/23 03:04:05;;;;;;;1999.90;999.90;;;;;;;18.94;100.00;99727.16;5063177;28;20459;-51
2022/07/23 03:06:49;;;;;;;1999.90;999.90;;;;;;;18.99;100.00;99715.34;5061015;28;20059;-52
2022/07/23 03:09:33;;;;;;;1999.90;999.90;;;;;;;18.99;100.00;99717.16;5053024;28;20044;-52
2022/07/23 03:12:18;;;;;;;1999.90;999.90;;;;;;;18.90;100.00;99727.34;5059768;28;20040;-52
2022/07/23 03:15:02;;;;;;;1999.90;999.90;;;;;;;18.89;100.00;99723.00;5063023;28;20055;-51
2022/07/23 03:17:46;;;;;;;1999.90;999.90;;;;;;;18.84;100.00;99719.75;5059070;28;20113;-52
2022/07/23 03:20:31;;;;;;;1999.90;999.90;;;;;;;18.65;100.00;99722.66;5066687;28;20537;-52
2022/07/23 03:23:16;;;;;;;1999.90;999.90;;;;;;;18.76;100.00;99724.69;5065454;28;20051;-52
2022/07/23 03:26:00;;;;;;;1999.90;999.90;;;;;;;18.70;100.00;99717.06;5064483;28;20052;-52
2022/07/23 03:28:44;;;;;;;1999.90;999.90;;;;;;;18.82;100.00;99726.13;5068192;28;20486;-52
2022/07/23 03:31:30;;;;;;;1999.90;999.90;;;;;;;18.79;100.00;99728.97;5067561;28;20117;-51
2022/07/23 03:34:18;;;;;;;1999.90;999.90;;;;;;;18.80;100.00;99728.00;5061067;28;20114;-52
2022/07/23 03:37:02;;;;;;;1999.90;999.90;;;;;;;18.84;100.00;99725.06;5061581;28;20111;-51
2022/07/23 03:39:46;;;;;;;1999.90;999.90;;;;;;;18.83;100.00;99728.69;5059066;28;20388;-52
2022/07/23 03:42:31;;;;;;;1999.90;999.90;;;;;;;18.93;100.00;99736.94;5057002;28;20056;-52
2022/07/23 03:45:16;;;;;;;1999.90;999.90;;;;;;;19.04;100.00;99739.78;5058433;28;20056;-52
2022/07/23 03:48:00;;;;;;;1999.90;999.90;;;;;;;19.10;100.00;99728.78;5057001;28;20060;-52
2022/07/23 03:50:47;;;;;;;1999.90;999.90;;;;;;;19.18;100.00;99738.09;5067794;28;20070;-52
2022/07/23 03:53:31;;;;;;;1999.90;999.90;;;;;;;19.25;100.00;99742.94;5052610;28;20048;-53
2022/07/23 03:56:15;;;;;;;1999.90;999.90;;;;;;;19.15;100.00;99736.50;5058421;28;20413;-52
2022/07/23 03:59:00;;;;;;;1999.90;999.90;;;;;;;19.19;100.00;99743.31;5058417;28;20059;-52
2022/07/23 04:01:44;;;;;;;1999.90;999.90;;;;;;;19.32;100.00;99740.75;5068233;28;20044;-52
2022/07/23 04:04:29;;;;;;;1999.90;999.90;;;;;;;19.35;100.00;99744.06;5066078;28;20681;-52
2022/07/23 04:07:17;;;;;;;1999.90;999.90;;;;;;;19.36;100.00;99742.25;5066224;28;20110;-52
2022/07/23 04:10:02;;;;;;;1999.90;999.90;;;;;;;19.69;100.00;99739.31;5067946;28;20448;-52
2022/07/23 04:12:46;;;;;;;1999.90;999.90;;;;;;;19.78;100.00;99746.69;5057301;28;20109;-51
2022/07/23 04:15:31;;;;;;;1999.90;999.90;;;;;;;19.97;100.00;99749.03;5055215;28;20060;-52
2022/07/23 04:18:17;;;;;;;1999.90;999.90;;;;;;;20.10;100.00;99756.19;5062611;28;20094;-52
2022/07/23 04:21:15;;;;;;;1999.90;999.90;;;;;;;20.63;100.00;99744.69;5061949;28;20036;-52
2022/07/23 04:23:59;;;;;;;1999.90;999.90;;;;;;;20.20;100.00;99741.34;5063890;28;20083;-53
2022/07/23 04:26:44;;;;;;;1999.90;999.90;;;;;;;20.29;100.00;99730.09;5054907;28;20097;-52
2022/07/23 04:29:29;;;;;;;1999.90;999.90;;;;;;;20.49;100.00;99734.94;5064059;28;20104;-53
2022/07/23 04:32:13;;;;;;;1999.90;999.90;;;;;;;20.97;100.00;99715.78;5059885;28;20551;-52
2022/07/23 04:34:57;;;;;;;1999.90;999.90;;;;;;;21.46;100.00;99731.84;5068261;28;20142;-52
2022/07/23 04:37:42;;;;;;;1999.90;999.90;;;;;;;21.41;100.00;99730.44;5060227;28;20123;-52
2022/07/23 04:40:27;;;;;;;1999.90;999.90;;;;;;;21.36;100.00;99725.47;5059078;28;20060;-52
2022/07/23 04:43:11;;;;;;;1999.90;999.90;;;;;;;21.43;100.00;99717.88;5054839;28;20510;-52
2022/07/23 04:46:03;;;;;;;1999.90;999.90;;;;;;;21.72;100.00;99715.78;5060363;28;20497;-52
2022/07/23 04:48:54;;;;;;;1999.90;999.90;;;;;;;21.73;100.00;99706.81;5054313;28;20543;-52
2022/07/23 04:51:39;;;;;;;1999.90;999.90;;;;;;;21.53;100.00;99702.94;5059519;28;20060;-52
2022/07/23 04:54:23;;;;;;;1999.90;999.90;;;;;;;22.06;100.00;99700.81;5053868;28;20399;-52
2022/07/23 04:57:09;;;;;;;1999.90;999.90;;;;;;;22.11;100.00;99696.00;5052755;28;20094;-52
2022/07/23 04:59:53;;;;;;;1999.90;999.90;;;;;;;22.46;100.00;99695.19;5051874;28;20051;-53
2022/07/23 05:02:39;;;;;;;1999.90;999.90;;;;;;;22.93;100.00;99688.03;5061484;28;20106;-52
2022/07/23 05:05:23;;;;;;;1999.90;999.90;;;;;;;22.49;100.00;99686.97;5057821;28;20049;-53
2022/07/23 05:08:09;;;;;;;1999.90;999.90;;;;;;;22.65;100.00;99683.94;5055751;28;20076;-53
2022/07/23 05:10:56;;;;;;;1999.90;999.90;;;;;;;22.49;100.00;99675.41;5060596;28;20048;-52
2022/07/23 05:13:41;;;;;;;1999.90;999.90;;;;;;;22.79;100.00;99680.22;5057372;28;20063;-52
2022/07/23 05:16:26;;;;;;;1999.90;999.90;;;;;;;23.17;100.00;99679.03;5060459;28;20077;-53
2022/07/23 05:19:14;;;;;;;1999.90;999.90;;;;;;;23.47;100.00;99683.78;5061041;28;20055;-53
2022/07/23 05:22:00;;;;;;;1999.90;999.90;;;;;;;23.95;99.29;99673.63;5053676;28;20301;-53
2022/07/23 05:24:45;;;;;;;1999.90;999.90;;;;;;;24.11;96.97;99667.81;5065266;28;20080;-53
2022/07/23 05:27:30;;;;;;;1999.90;999.90;;;;;;;24.33;94.75;99663.34;5062358;28;20071;-53
2022/07/23 05:30:14;;;;;;;1999.90;999.90;;;;;;;24.62;94.30;99667.09;5064562;28;20032;-53
2022/07/23 05:33:01;;;;;;;1999.90;999.90;;;;;;;24.28;93.11;99658.38;5060006;28;20083;-53
2022/07/23 05:35:46;;;;;;;1999.90;999.90;;;;;;;24.64;96.53;99653.59;5050580;28;20087;-53
2022/07/23 05:38:42;;;;;;;1999.90;999.90;;;;;;;25.44;88.68;99642.09;5057636;28;20051;-54
2022/07/23 05:41:27;;;;;;;1999.90;999.90;;;;;;;25.31;88.97;99647.69;5053905;28;20068;-53
2022/07/23 05:44:11;;;;;;;1999.90;999.90;;;;;;;24.93;87.26;99637.69;5054483;28;20055;-53
2022/07/23 05:46:58;;;;;;;1999.90;999.90;;;;;;;25.46;86.23;99621.38;5054252;28;20060;-53
2022/07/23 05:49:45;;;;;;;1999.90;999.90;;;;;;;25.24;87.17;99629.63;5054399;28;20052;-52
2022/07/23 05:52:44;;;;;;;1999.90;999.90;;;;;;;25.51;84.71;99616.44;5064615;28;20106;-53
2022/07/23 05:55:51;;;;;;;1999.90;999.90;;;;;;;25.40;86.42;99624.59;5068969;28;20617;-53
2022/07/23 05:58:36;;;;;;;1999.90;999.90;;;;;;;25.87;82.17;99616.81;5054854;28;20122;-53
2022/07/23 06:01:21;;;;;;;1999.90;999.90;;;;;;;25.54;82.90;99613.47;5067086;28;20189;-53
2022/07/23 06:04:17;;;;;;;1999.90;999.90;;;;;;;25.81;81.86;99606.63;5063592;28;20063;-53
2022/07/23 06:07:12;;;;;;;1999.90;999.90;;;;;;;25.68;80.31;99604.19;5064362;28;20360;-53
2022/07/23 06:09:57;;;;;;;1999.90;999.90;;;;;;;26.39;78.04;99603.91;5066835;28;20514;-53
2022/07/23 06:12:41;;;;;;;1999.90;999.90;;;;;;;25.77;76.91;99595.31;5069414;28;20055;-54
2022/07/23 06:15:25;;;;;;;1999.90;999.90;;;;;;;25.93;80.53;99592.06;5061901;28;20055;-53
2022/07/23 06:18:10;;;;;;;1999.90;999.90;;;;;;;25.78;80.06;99591.63;5063620;28;20043;-52
2022/07/23 06:20:57;;;;;;;1999.90;999.90;;;;;;;26.06;79.60;99587.28;5055918;28;20479;-53
2022/07/23 06:23:41;;;;;;;1999.90;999.90;;;;;;;26.09;79.15;99588.81;5058038;28;20048;-53
2022/07/23 06:26:26;;;;;;;1999.90;999.90;;;;;;;26.24;77.38;99579.34;5054036;28;20068;-52
2022/07/23 06:29:10;;;;;;;1999.90;999.90;;;;;;;26.30;76.92;99580.59;5058102;28;20099;-52
2022/07/23 06:31:54;;;;;;;1999.90;999.90;;;;;;;26.06;79.75;99583.72;5064884;28;20055;-53
2022/07/23 06:34:38;;;;;;;1999.90;999.90;;;;;;;25.78;77.90;99596.16;5063474;28;20464;-53
2022/07/23 06:37:23;;;;;;;1999.90;999.90;;;;;;;25.94;78.48;99596.47;5059356;28;20056;-53
2022/07/23 06:40:08;;;;;;;1999.90;999.90;;;;;;;26.18;78.08;99595.16;5059993;28;20063;-52
2022/07/23 06:42:54;;;;;;;1999.90;999.90;;;;;;;26.64;76.82;99598.91;5063714;28;20064;-52
2022/07/23 06:45:41;;;;;;;1999.90;999.90;;;;;;;26.37;78.63;99594.28;5068640;28;20055;-53
2022/07/23 06:48:25;;;;;;;1999.90;999.90;;;;;;;26.08;80.18;99597.84;5065188;28;20049;-53
2022/07/23 06:51:09;;;;;;;1999.90;999.90;;;;;;;26.08;78.70;99609.44;5056163;28;20050;-52
2022/07/23 06:53:54;;;;;;;1999.90;999.90;;;;;;;25.89;80.53;99609.44;5057360;28;20064;-53
2022/07/23 06:56:38;;;;;;;1999.90;999.90;;;;;;;26.37;80.04;99608.56;5054256;28;20055;-52
2022/07/23 06:59:22;;;;;;;1999.90;999.90;;;;;;;26.29;83.52;99614.66;5055128;28;20072;-53
2022/07/23 07:02:07;;;;;;;1999.90;999.90;;;;;;;26.73;78.71;99616.81;5059783;28;20079;-52
2022/07/23 07:04:53;;;;;;;1999.90;999.90;;;;;;;26.68;79.48;99621.78;5069245;28;20105;-53
2022/07/23 07:07:37;;;;;;;1999.90;999.90;;;;;;;26.92;80.48;99624.81;5055649;28;20056;-53
2022/07/23 07:10:21;;;;;;;1999.90;999.90;;;;;;;27.14;74.51;99620.94;5053563;28;20259;-53
2022/07/23 07:13:06;;;;;;;1999.90;999.90;;;;;;;27.34;76.64;99616.31;5050425;28;20028;-53
2022/07/23 07:15:50;;;;;;;1999.90;999.90;;;;;;;27.63;73.15;99617.97;5053390;28;20487;-53
2022/07/23 07:18:35;;;;;;;1999.90;999.90;;;;;;;28.29;70.51;99614.03;5054643;28;20539;-52
2022/07/23 07:21:20;;;;;;;1999.90;999.90;;;;;;;29.08;65.43;99610.34;5051187;28;20716;-53
2022/07/23 07:24:04;;;;;;;1999.90;999.90;;;;;;;29.12;65.37;99606.34;5053632;28;20511;-54
2022/07/23 07:26:49;;;;;;;1999.90;999.90;;;;;;;29.87;67.58;99605.50;5053835;28;20076;-53
2022/07/23 07:29:33;;;;;;;1999.90;999.90;;;;;;;28.78;66.67;99603.59;5053672;28;20536;-53
2022/07/23 07:32:17;;;;;;;1999.90;999.90;;;;;;;28.83;69.36;99598.59;5065873;28;20051;-54
2022/07/23 07:35:05;;;;;;;1999.90;999.90;;;;;;;29.19;65.10;99593.88;5068043;28;20871;-54
2022/07/23 07:37:50;;;;;;;1999.90;999.90;;;;;;;29.47;67.65;99594.44;5060403;28;20117;-53
2022/07/23 07:40:34;;;;;;;1999.90;999.90;;;;;;;29.45;62.64;99598.34;5062301;28;20480;-53
2022/07/23 07:43:19;;;;;;;1999.90;999.90;;;;;;;29.88;61.33;99583.75;5067214;28;20101;-53
2022/07/23 07:46:04;;;;;;;1999.90;999.90;;;;;;;29.65;58.14;99585.44;5067514;28;20039;-53
2022/07/23 07:48:48;;;;;;;1999.90;999.90;;;;;;;29.94;59.31;99575.00;5063755;28;20094;-53
2022/07/23 07:51:33;;;;;;;1999.90;999.90;;;;;;;29.99;58.52;99569.91;5069212;28;20082;-54
2022/07/23 07:54:18;;;;;;;1999.90;999.90;;;;;;;30.50;56.38;99575.97;5072023;28;20056;-53
2022/07/23 07:57:02;;;;;;;1999.90;999.90;;;;;;;30.66;57.43;99579.66;5066424;28;20532;-54
2022/07/23 07:59:47;;;;;;;1999.90;999.90;;;;;;;30.97;55.10;99577.00;5064408;28;20044;-53
2022/07/23 08:02:43;;;;;;;1999.90;999.90;;;;;;;31.60;54.56;99576.03;5065897;28;20573;-54
2022/07/23 08:05:30;;;;;;;1999.90;999.90;;;;;;;31.43;54.54;99572.59;5063966;28;20426;-54
2022/07/23 08:08:14;;;;;;;1999.90;999.90;;;;;;;31.96;52.77;99572.75;5062382;28;20128;-53
2022/07/23 08:10:59;;;;;;;1999.90;999.90;;;;;;;31.81;53.18;99561.81;5067032;28;20056;-54
2022/07/23 08:13:44;;;;;;;1999.90;999.90;;;;;;;31.74;51.56;99560.03;5063922;28;20071;-54
2022/07/23 08:16:29;;;;;;;1999.90;999.90;;;;;;;31.50;53.88;99571.88;5061206;28;20106;-54
2022/07/23 08:19:13;;;;;;;1999.90;999.90;;;;;;;31.50;52.76;99563.78;5061042;28;20407;-54
2022/07/23 08:21:58;;;;;;;1999.90;999.90;;;;;;;31.41;53.24;99565.69;5066542;28;20051;-53
2022/07/23 08:24:42;;;;;;;1999.90;999.90;;;;;;;32.33;50.36;99557.50;5055732;28;20037;-54
2022/07/23 08:27:27;;;;;;;1999.90;999.90;;;;;;;31.58;52.73;99561.00;5051664;28;20601;-54
2022/07/23 08:30:11;;;;;;;1999.90;999.90;;;;;;;31.52;54.58;99561.72;5051860;28;20053;-54
2022/07/23 08:33:00;;;;;;;1999.90;999.90;;;;;;;32.05;50.60;99557.28;5056673;28;20452;-54
2022/07/23 08:35:47;;;;;;;1999.90;999.90;;;;;;;31.26;52.80;99549.31;5051966;28;20093;-54
2022/07/23 08:38:33;;;;;;;1999.90;999.90;;;;;;;31.10;55.36;99549.41;5049660;28;20045;-54
2022/07/23 08:41:17;;;;;;;1999.90;999.90;;;;;;;30.91;54.48;99556.97;5057568;28;20139;-53
2022/07/23 08:44:02;;;;;;;1999.90;999.90;;;;;;;31.51;53.48;99547.34;5064152;28;20090;-54
2022/07/23 08:46:47;;;;;;;1999.90;999.90;;;;;;;31.50;52.34;99550.25;5059461;28;20082;-54
2022/07/23 08:49:32;;;;;;;1999.90;999.90;;;;;;;31.77;52.65;99559.69;5060593;28;20051;-53
2022/07/23 08:52:17;;;;;;;1999.90;999.90;;;;;;;32.29;49.95;99553.50;5067228;28;20048;-53
2022/07/23 08:55:01;;;;;;;1999.90;999.90;;;;;;;32.77;47.66;99554.00;5060063;28;20506;-54
2022/07/23 08:57:51;;;;;;;1999.90;999.90;;;;;;;33.29;46.00;99544.88;5064077;28;21459;-54
2022/07/23 09:00:35;;;;;;;1999.90;999.90;;;;;;;33.23;46.27;99549.19;5058308;28;20037;-54
2022/07/23 09:03:29;;;;;;;1999.90;999.90;;;;;;;33.41;45.66;99547.91;5064814;28;20063;-53
2022/07/23 09:06:14;;;;;;;1999.90;999.90;;;;;;;33.70;44.03;99546.97;5067811;28;20047;-55
2022/07/23 09:09:17;;;;;;;1999.90;999.90;;;;;;;33.63;45.35;99546.09;5068823;28;20564;-54
2022/07/23 09:12:03;;;;;;;1999.90;999.90;;;;;;;34.48;42.81;99542.41;5062998;28;20052;-54
2022/07/23 09:14:48;;;;;;;1999.90;999.90;;;;;;;34.39;41.86;99538.19;5059883;28;20054;-54
2022/07/23 09:17:41;;;;;;;1999.90;999.90;;;;;;;34.30;42.42;99536.66;5061665;28;20044;-54
2022/07/23 09:20:26;;;;;;;1999.90;999.90;;;;;;;34.40;43.35;99527.09;5058262;28;20143;-54
2022/07/23 09:23:10;;;;;;;1999.90;999.90;;;;;;;33.71;44.49;99522.38;5065339;28;20807;-54
2022/07/23 09:25:55;;;;;;;1999.90;999.90;;;;;;;33.78;44.26;99516.16;5053636;28;20072;-54
2022/07/23 09:28:55;;;;;;;1999.90;999.90;;;;;;;34.23;43.24;99512.16;5053322;28;20437;-54
2022/07/23 09:31:52;;;;;;;1999.90;999.90;;;;;;;33.32;41.65;99506.50;5057919;28;20048;-56
2022/07/23 09:34:40;;;;;;;1999.90;999.90;;;;;;;33.40;43.00;99500.09;5056535;28;20411;-54
2022/07/23 09:37:24;;;;;;;1999.90;999.90;;;;;;;33.57;40.75;99508.84;5056518;28;20072;-53
2022/07/23 09:40:12;;;;;;;1999.90;999.90;;;;;;;32.99;38.86;99511.56;5057223;28;20135;-54
2022/07/23 09:42:57;;;;;;;1999.90;999.90;;;;;;;33.10;38.26;99502.09;5054529;28;20135;-55
2022/07/23 09:45:41;;;;;;;1999.90;999.90;;;;;;;33.70;37.87;99492.69;5049046;28;20102;-54
2022/07/23 09:48:26;;;;;;;1999.90;999.90;;;;;;;34.37;36.25;99499.47;5050713;28;20145;-54
2022/07/23 09:51:12;;;;;;;1999.90;999.90;;;;;;;34.50;33.87;99490.56;5050914;28;20083;-56
2022/07/23 09:53:56;;;;;;;1999.90;999.90;;;;;;;34.62;33.06;99489.00;5051292;28;20040;-54
2022/07/23 09:56:42;;;;;;;1999.90;999.90;;;;;;;35.09;34.55;99500.91;5050556;28;20053;-54
2022/07/23 09:59:31;;;;;;;1999.90;999.90;;;;;;;35.65;35.75;99489.72;5050529;28;20106;-55
2022/07/23 10:02:16;;;;;;;1999.90;999.90;;;;;;;35.17;33.07;99489.84;5055481;28;20045;-55
2022/07/23 10:05:27;;;;;;;1999.90;999.90;;;;;;;35.75;31.48;99486.59;5054990;28;20036;-56
2022/07/23 10:08:32;;;;;;;1999.90;999.90;;;;;;;36.32;30.83;99478.81;5049771;28;20090;-55
2022/07/23 10:11:36;;;;;;;1999.90;999.90;;;;;;;34.84;32.06;99473.38;5056188;28;20390;-55
2022/07/23 10:14:32;;;;;;;1999.90;999.90;;;;;;;33.73;30.96;99482.31;5051193;28;20045;-55
2022/07/23 10:17:20;;;;;;;1999.90;999.90;;;;;;;33.33;30.98;99481.03;5051539;28;20040;-56
2022/07/23 10:20:05;;;;;;;1999.90;999.90;;;;;;;33.32;31.38;99479.38;5054991;28;20446;-55
2022/07/23 10:23:14;;;;;;;1999.90;999.90;;;;;;;33.07;31.92;99483.47;5062235;28;20074;-56
2022/07/23 10:26:37;;;;;;;1999.90;999.90;;;;;;;32.92;31.94;99480.75;5049932;28;20044;-55
2022/07/23 10:29:40;;;;;;;1999.90;999.90;;;;;;;32.52;32.91;99486.53;5045399;28;20055;-55
2022/07/23 10:32:45;;;;;;;1999.90;999.90;;;;;;;32.69;33.13;99499.88;5055201;28;20041;-55
2022/07/23 10:35:41;;;;;;;1999.90;999.90;;;;;;;32.96;32.69;99495.66;5051765;28;20087;-55
2022/07/23 10:39:05;;;;;;;1999.90;999.90;;;;;;;32.94;32.85;99484.97;5064836;28;20400;-55
2022/07/23 10:41:50;;;;;;;1999.90;999.90;;;;;;;32.74;33.23;99490.16;5036743;28;20045;-55
2022/07/23 10:44:45;;;;;;;1999.90;999.90;;;;;;;32.99;34.17;99482.56;5053274;28;20071;-55
2022/07/23 10:47:42;;;;;;;1999.90;999.90;;;;;;;33.18;33.71;99489.25;5056604;28;20047;-55
2022/07/23 10:50:34;;;;;;;1999.90;999.90;;;;;;;32.98;32.45;99489.00;5052312;28;20058;-55
2022/07/23 10:53:19;;;;;;;1999.90;999.90;;;;;;;32.82;33.21;99494.63;5056869;28;20741;-54
2022/07/23 10:56:04;;;;;;;1999.90;999.90;;;;;;;32.88;30.88;99488.44;5058250;28;20049;-55
2022/07/23 10:58:49;;;;;;;1999.90;999.90;;;;;;;33.08;29.22;99485.16;5063843;28;20113;-55
2022/07/23 11:01:38;;;;;;;1999.90;999.90;;;;;;;33.00;31.10;99489.66;5061423;28;20048;-55
2022/07/23 11:04:50;;;;;;;1999.90;999.90;;;;;;;33.03;31.82;99491.16;5062938;28;20094;-55
2022/07/23 11:07:37;;;;;;;1999.90;999.90;;;;;;;32.76;33.13;99474.56;5055662;28;20049;-55
2022/07/23 11:10:48;;;;;;;1999.90;999.90;;;;;;;32.44;33.34;99493.94;5063466;28;20047;-55
2022/07/23 11:13:38;;;;;;;1999.90;999.90;;;;;;;32.77;33.76;99488.94;5064970;28;20047;-55
2022/07/23 11:16:24;;;;;;;1999.90;999.90;;;;;;;32.80;34.74;99478.56;5067964;28;20036;-55
2022/07/23 11:19:08;;;;;;;1999.90;999.90;;;;;;;32.15;36.05;99490.16;5060766;28;20098;-55
2022/07/23 11:21:52;;;;;;;1999.90;999.90;;;;;;;32.58;37.02;99509.34;5065845;28;20131;-55
2022/07/23 11:24:50;;;;;;;1999.90;999.90;;;;;;;30.24;50.49;99526.72;5063067;28;20199;-54
2022/07/23 11:27:38;;;;;;;1999.90;999.90;;;;;;;29.41;56.86;99545.72;5058469;28;20462;-53
2022/07/23 11:30:28;;;;;;;1999.90;999.90;;;;;;;29.54;57.43;99532.59;5061168;28;20055;-53
2022/07/23 11:33:12;;;;;;;1999.90;999.90;;;;;;;28.31;61.41;99555.50;5050623;28;20055;-53
2022/07/23 11:36:03;;;;;;;1999.90;999.90;;;;;;;27.95;65.16;99542.13;5060650;28;20047;-53
2022/07/23 11:38:50;;;;;;;1999.90;999.90;;;;;;;27.15;65.81;99546.53;5057684;28;20052;-55
2022/07/23 11:41:44;;;;;;;1999.90;999.90;;;;;;;26.58;70.76;99557.34;5060226;28;20079;-53
2022/07/23 11:44:36;;;;;;;1999.90;999.90;;;;;;;26.26;74.56;99558.56;5063656;28;20063;-53
2022/07/23 11:47:26;;;;;;;1999.90;999.90;;;;;;;25.92;81.34;99581.50;5054877;28;20102;-52
2022/07/23 11:50:11;;;;;;;1999.90;999.90;;;;;;;25.32;90.79;99585.09;5050548;28;20593;-53
2022/07/23 11:52:55;;;;;;;1999.90;999.90;;;;;;;24.85;100.00;99592.78;5050815;28;20522;-52
2022/07/23 11:55:40;;;;;;;1999.90;999.90;;;;;;;24.48;100.00;99612.06;5053479;28;20048;-52
2022/07/23 11:58:25;;;;;;;1999.90;999.90;;;;;;;24.05;100.00;99646.06;5060783;28;20060;-52
2022/07/23 12:01:10;;;;;;;1999.90;999.90;;;;;;;23.29;100.00;99670.91;5048160;28;20144;-55
2022/07/23 12:03:54;;;;;;;1999.90;999.90;;;;;;;22.72;100.00;99671.84;5056477;28;20076;-54
2022/07/23 12:06:38;;;;;;;1999.90;999.90;;;;;;;22.29;100.00;99677.78;5057835;28;20068;-55
2022/07/23 12:09:23;;;;;;;1999.90;999.90;;;;;;;21.88;100.00;99692.38;5065032;28;20063;-55
2022/07/23 12:12:08;;;;;;;1999.90;999.90;;;;;;;21.89;100.00;99701.22;5060694;28;20052;-54
2022/07/23 12:14:58;;;;;;;1999.90;999.90;;;;;;;21.93;100.00;99716.84;5056001;28;20509;-54
2022/07/23 12:17:45;;;;;;;1999.90;999.90;;;;;;;21.80;100.00;99709.88;5055160;28;20097;-55